createdAt,value
2023-05-05T00:00:34.033Z,79.77
2023-05-05T00:03:22.323Z,81.67
2023-05-05T00:06:09.260Z,80.59
2023-05-05T00:08:55.851Z,79.60
2023-05-05T00:11:42.458Z,78.81
2023-05-05T00:14:29.168Z,78.11
2023-05-05T00:17:17.620Z,78.34
2023-05-05T00:20:04.301Z,79.86
2023-05-05T00:22:51.890Z,79.31
2023-05-05T00:25:38.639Z,83.02
2023-05-05T00:28:25.353Z,82.35
2023-05-05T00:31:12.024Z,82.04
2023-05-05T00:34:00.283Z,81.35
2023-05-05T00:36:47.064Z,82.58
2023-05-05T00:39:33.708Z,82.08
2023-05-05T00:42:20.474Z,83.19
2023-05-05T00:45:08.780Z,83.23
2023-05-05T00:47:58.116Z,81.20
2023-05-05T00:50:46.281Z,81.46
2023-05-05T00:53:32.852Z,81.52
2023-05-05T00:56:21.994Z,82.20
2023-05-05T00:59:08.609Z,83.80
2023-05-05T01:01:55.531Z,84.82
2023-05-05T01:04:41.964Z,84.42
2023-05-05T01:07:38.911Z,83.18
2023-05-05T01:10:35.507Z,84.19
2023-05-05T01:13:33.427Z,83.04
2023-05-05T01:16:24.929Z,82.63
2023-05-05T01:19:41.642Z,86.36
2023-05-05T01:22:35.025Z,84.81
2023-05-05T01:25:50.770Z,85.15
2023-05-05T01:29:01.873Z,86.36
2023-05-05T01:31:54.681Z,86.13
2023-05-05T01:34:46.345Z,85.63
2023-05-05T01:37:43.440Z,85.67
2023-05-05T01:40:37.808Z,85.62
2023-05-05T01:43:28.535Z,85.80
2023-05-05T01:46:17.135Z,86.44
2023-05-05T01:49:06.020Z,85.33
2023-05-05T01:51:53.661Z,86.00
2023-05-05T01:54:42.317Z,86.69
2023-05-05T01:57:31.752Z,86.74
2023-05-05T02:00:20.615Z,90.02
2023-05-05T02:03:09.430Z,88.40
2023-05-05T02:06:00.112Z,88.28
2023-05-05T02:08:48.407Z,86.52
2023-05-05T02:11:36.078Z,87.52
2023-05-05T02:14:24.090Z,86.01
2023-05-05T02:17:12.394Z,85.18
2023-05-05T02:20:02.175Z,88.64
2023-05-05T02:22:50.648Z,89.64
2023-05-05T02:25:41.308Z,87.31
2023-05-05T02:28:35.437Z,89.29
2023-05-05T02:31:25.217Z,87.45
2023-05-05T02:34:14.558Z,86.20
2023-05-05T02:37:08.050Z,86.61
2023-05-05T02:40:02.719Z,86.07
2023-05-05T02:42:55.236Z,88.19
2023-05-05T02:45:49.353Z,86.61
2023-05-05T02:48:36.918Z,85.31
2023-05-05T02:51:23.708Z,83.45
2023-05-05T02:54:11.972Z,85.29
2023-05-05T02:57:01.576Z,83.64
2023-05-05T02:59:57.686Z,84.93
2023-05-05T03:02:57.454Z,82.65
2023-05-05T03:05:52.518Z,83.51
2023-05-05T03:08:45.173Z,83.50
2023-05-05T03:11:38.156Z,82.70
2023-05-05T03:14:33.308Z,83.28
2023-05-05T03:17:22.717Z,84.36
2023-05-05T03:20:11.751Z,83.63
2023-05-05T03:23:02.720Z,83.63
2023-05-05T03:25:50.710Z,83.35
2023-05-05T03:29:03.409Z,84.21
2023-05-05T03:31:53.243Z,83.71
2023-05-05T03:34:40.110Z,83.59
2023-05-05T03:37:26.905Z,84.22
2023-05-05T03:40:14.644Z,84.74
2023-05-05T03:43:01.493Z,83.55
2023-05-05T03:45:48.195Z,84.40
2023-05-05T03:48:36.207Z,84.65
2023-05-05T03:51:23.005Z,84.66
2023-05-05T03:54:10.354Z,84.66
2023-05-05T03:56:57.111Z,84.87
2023-05-05T03:59:43.913Z,85.32
2023-05-05T04:02:30.837Z,85.40
2023-05-05T04:05:19.928Z,85.61
2023-05-05T04:08:07.169Z,86.45
2023-05-05T04:10:53.935Z,85.21
2023-05-05T04:13:41.539Z,85.08
2023-05-05T04:16:28.335Z,85.27
2023-05-05T04:19:16.104Z,85.43
2023-05-05T04:22:04.566Z,84.45
2023-05-05T04:24:51.802Z,84.63
2023-05-05T04:27:38.490Z,84.51
2023-05-05T04:30:26.322Z,83.59
2023-05-05T04:33:13.296Z,83.13
2023-05-05T04:36:01.000Z,83.51
2023-05-05T04:38:50.143Z,83.13
2023-05-05T04:41:37.435Z,83.10
2023-05-05T04:44:24.334Z,82.41
2023-05-05T04:47:13.942Z,82.63
2023-05-05T04:50:01.469Z,81.29
2023-05-05T04:52:48.533Z,80.22
2023-05-05T04:55:37.130Z,80.49
2023-05-05T04:58:23.765Z,79.50
2023-05-05T05:01:10.637Z,78.82
2023-05-05T05:03:59.064Z,74.50
2023-05-05T05:06:46.162Z,70.80
2023-05-05T05:09:33.211Z,71.09
2023-05-05T05:12:21.586Z,71.55
2023-05-05T05:15:09.677Z,72.37
2023-05-05T05:17:56.387Z,71.84
2023-05-05T05:20:44.316Z,67.13
2023-05-05T05:23:31.555Z,60.67
2023-05-05T05:26:18.552Z,55.24
2023-05-05T05:29:06.629Z,52.32
2023-05-05T05:31:53.837Z,50.93
2023-05-05T05:34:40.710Z,48.85
2023-05-05T05:37:30.067Z,47.11
2023-05-05T05:40:17.984Z,46.58
2023-05-05T05:43:05.175Z,46.41
2023-05-05T05:45:54.746Z,46.14
2023-05-05T05:48:41.612Z,45.46
2023-05-05T05:51:28.324Z,45.69
2023-05-05T05:54:15.238Z,47.38
2023-05-05T05:57:02.593Z,48.14
2023-05-05T05:59:49.248Z,47.49
2023-05-05T06:02:37.676Z,47.84
2023-05-05T06:05:25.508Z,50.22
2023-05-05T06:08:12.814Z,54.18
2023-05-05T06:11:04.510Z,56.84
2023-05-05T06:13:51.284Z,55.15
2023-05-05T06:16:38.076Z,53.45
2023-05-05T06:19:30.688Z,51.13
2023-05-05T06:22:17.190Z,51.23
2023-05-05T06:25:04.541Z,50.61
2023-05-05T06:27:51.326Z,48.89
2023-05-05T06:30:38.095Z,49.00
2023-05-05T06:33:24.922Z,51.84
2023-05-05T06:36:13.184Z,53.39
2023-05-05T06:39:00.016Z,55.14
2023-05-05T06:41:46.825Z,54.27
2023-05-05T06:44:34.686Z,53.12
2023-05-05T06:47:21.789Z,55.71
2023-05-05T06:50:10.215Z,55.88
2023-05-05T06:52:58.331Z,53.53
2023-05-05T06:55:46.932Z,54.61
2023-05-05T06:58:33.903Z,55.27
2023-05-05T07:01:20.432Z,55.22
2023-05-05T07:04:07.395Z,53.67
2023-05-05T07:06:55.305Z,53.95
2023-05-05T07:09:45.057Z,53.55
2023-05-05T07:12:32.046Z,55.18
2023-05-05T07:15:27.361Z,54.13
2023-05-05T07:18:15.251Z,55.05
2023-05-05T07:21:02.737Z,55.68
2023-05-05T07:23:49.467Z,56.50
2023-05-05T07:26:37.628Z,55.38
2023-05-05T07:29:24.089Z,55.34
2023-05-05T07:32:11.008Z,56.58
2023-05-05T07:34:57.817Z,56.07
2023-05-05T07:37:45.423Z,56.07
2023-05-05T07:40:33.869Z,52.35
2023-05-05T07:43:21.816Z,53.95
2023-05-05T07:46:08.876Z,55.49
2023-05-05T07:48:55.399Z,55.30
2023-05-05T07:51:42.218Z,54.05
2023-05-05T07:54:29.074Z,55.52
2023-05-05T07:57:15.608Z,55.76
2023-05-05T08:00:04.287Z,55.94
2023-05-05T08:02:58.803Z,52.92
2023-05-05T08:05:45.597Z,54.62
2023-05-05T08:08:32.398Z,53.07
2023-05-05T08:11:18.975Z,52.40
2023-05-05T08:14:06.061Z,52.91
2023-05-05T08:16:54.197Z,53.84
2023-05-05T08:19:40.902Z,54.77
2023-05-05T08:22:27.733Z,54.17
2023-05-05T08:25:15.504Z,53.75
2023-05-05T08:28:02.288Z,53.30
2023-05-05T08:30:49.570Z,50.50
2023-05-05T08:33:37.882Z,50.35
2023-05-05T08:36:25.278Z,49.95
2023-05-05T08:39:11.907Z,49.81
2023-05-05T08:41:59.093Z,48.37
2023-05-05T08:44:45.993Z,46.59
2023-05-05T08:47:32.943Z,46.20
2023-05-05T08:50:24.550Z,45.04
2023-05-05T08:53:17.880Z,44.78
2023-05-05T08:56:06.258Z,43.78
2023-05-05T08:58:52.911Z,43.40
2023-05-05T09:01:39.505Z,43.92
2023-05-05T09:04:26.952Z,44.47
2023-05-05T09:07:15.065Z,44.06
2023-05-05T09:10:04.299Z,43.67
2023-05-05T09:12:51.699Z,44.18
2023-05-05T09:15:39.201Z,44.89
2023-05-05T09:18:26.062Z,45.05
2023-05-05T09:21:23.212Z,43.45
2023-05-05T09:24:13.442Z,43.22
2023-05-05T09:27:01.680Z,44.22
2023-05-05T09:29:50.338Z,44.67
2023-05-05T09:32:45.541Z,44.02
2023-05-05T09:35:49.721Z,42.02
2023-05-05T09:38:36.570Z,42.21
2023-05-05T09:41:38.083Z,43.14
2023-05-05T09:44:36.063Z,43.16
2023-05-05T09:47:29.361Z,41.48
2023-05-05T09:50:18.990Z,42.72
2023-05-05T09:53:06.263Z,42.37
2023-05-05T09:55:56.875Z,44.27
2023-05-05T09:58:44.833Z,41.83
2023-05-05T10:01:31.439Z,43.65
2023-05-05T10:04:25.952Z,40.60
2023-05-05T10:07:24.712Z,41.64
2023-05-05T10:10:13.579Z,42.39
2023-05-05T10:13:00.488Z,42.39
2023-05-05T10:15:51.097Z,42.76
2023-05-05T10:18:41.487Z,41.74
2023-05-05T10:21:34.076Z,41.27
2023-05-05T10:24:36.544Z,41.52
2023-05-05T10:27:25.096Z,41.22
2023-05-05T10:30:18.141Z,41.38
2023-05-05T10:33:31.109Z,41.92
2023-05-05T10:36:21.617Z,42.18
2023-05-05T10:39:09.634Z,43.14
2023-05-05T10:41:56.608Z,44.21
2023-05-05T10:44:43.272Z,43.15
2023-05-05T10:47:30.462Z,40.17
2023-05-05T10:50:27.192Z,41.74
2023-05-05T10:53:20.395Z,41.62
2023-05-05T10:56:15.629Z,42.07
2023-05-05T10:59:02.375Z,42.68
2023-05-05T11:01:50.943Z,41.82
2023-05-05T11:04:37.765Z,41.29
2023-05-05T11:07:27.529Z,41.72
2023-05-05T11:10:15.830Z,40.88
2023-05-05T11:13:22.057Z,40.71
2023-05-05T11:16:42.022Z,40.95
2023-05-05T11:19:47.802Z,41.51
2023-05-05T11:23:20.314Z,42.19
2023-05-05T11:26:06.994Z,41.52
2023-05-05T11:28:59.328Z,40.79
2023-05-05T11:31:47.929Z,41.65
2023-05-05T11:34:34.924Z,40.60
2023-05-05T11:37:25.241Z,42.01
2023-05-05T11:40:25.033Z,42.66
2023-05-05T11:43:11.825Z,43.75
2023-05-05T11:46:11.872Z,42.42
2023-05-05T11:48:58.614Z,43.46
2023-05-05T11:51:45.632Z,42.98
2023-05-05T11:54:33.194Z,41.41
2023-05-05T11:57:28.582Z,43.37
2023-05-05T12:00:16.549Z,41.58
2023-05-05T12:03:03.357Z,40.92
2023-05-05T12:05:50.166Z,43.81
2023-05-05T12:08:37.555Z,42.41
2023-05-05T12:11:24.172Z,41.14
2023-05-05T12:14:12.901Z,40.80
2023-05-05T12:17:01.593Z,41.27
2023-05-05T12:19:53.102Z,42.83
2023-05-05T12:22:40.170Z,42.33
2023-05-05T12:25:27.014Z,42.14
2023-05-05T12:28:13.931Z,42.40
2023-05-05T12:31:02.397Z,42.06
2023-05-05T12:33:49.899Z,43.89
2023-05-05T12:36:37.179Z,40.94
2023-05-05T12:39:24.125Z,42.66
2023-05-05T12:42:10.989Z,41.90
2023-05-05T12:44:57.961Z,41.58
2023-05-05T12:47:46.107Z,41.34
2023-05-05T12:50:33.392Z,42.90
2023-05-05T12:53:23.507Z,42.21
2023-05-05T12:56:34.636Z,41.87
2023-05-05T12:59:31.210Z,40.98
2023-05-05T13:02:18.396Z,41.00
2023-05-05T13:05:08.755Z,42.67
2023-05-05T13:07:55.910Z,41.00
2023-05-05T13:10:58.284Z,41.92
2023-05-05T13:13:45.008Z,42.54
2023-05-05T13:16:31.953Z,42.11
2023-05-05T13:19:18.399Z,40.81
2023-05-05T13:22:06.814Z,41.14
2023-05-05T13:24:53.590Z,40.39
2023-05-05T13:27:40.295Z,39.20
2023-05-05T13:30:27.049Z,39.36
2023-05-05T13:33:13.660Z,39.50
2023-05-05T13:36:00.729Z,38.10
2023-05-05T13:38:48.772Z,39.05
2023-05-05T13:41:35.415Z,38.98
2023-05-05T13:44:22.188Z,37.39
2023-05-05T13:47:09.043Z,38.99
2023-05-05T13:49:56.327Z,38.99
2023-05-05T13:52:42.980Z,37.74
2023-05-05T13:55:31.297Z,37.24
2023-05-05T13:58:17.876Z,37.38
2023-05-05T14:01:05.059Z,38.50
2023-05-05T14:03:51.643Z,38.68
2023-05-05T14:06:38.659Z,36.86
2023-05-05T14:09:25.338Z,37.32
2023-05-05T14:12:13.594Z,37.45
2023-05-05T14:15:00.812Z,38.34
2023-05-05T14:17:47.726Z,37.35
2023-05-05T14:20:34.640Z,36.32
2023-05-05T14:23:21.466Z,37.03
2023-05-05T14:26:09.125Z,37.83
2023-05-05T14:28:57.314Z,38.19
2023-05-05T14:31:44.121Z,38.29
2023-05-05T14:34:31.074Z,37.18
2023-05-05T14:37:17.812Z,38.46
2023-05-05T14:40:05.837Z,38.11
2023-05-05T14:42:52.676Z,39.27
2023-05-05T14:45:41.511Z,38.24
2023-05-05T14:48:28.814Z,39.15
2023-05-05T14:51:15.978Z,37.35
2023-05-05T14:54:03.855Z,37.83
2023-05-05T14:56:52.248Z,37.14
2023-05-05T14:59:38.960Z,38.41
2023-05-05T15:02:27.253Z,37.87
2023-05-05T15:05:13.785Z,38.74
2023-05-05T15:08:00.565Z,39.65
2023-05-05T15:10:47.352Z,39.39
2023-05-05T15:13:35.521Z,38.16
2023-05-05T15:16:22.263Z,38.34
2023-05-05T15:19:10.634Z,38.02
2023-05-05T15:21:57.614Z,38.17
2023-05-05T15:24:44.396Z,38.90
2023-05-05T15:27:31.875Z,39.72
2023-05-05T15:30:18.670Z,39.54
2023-05-05T15:33:05.281Z,39.04
2023-05-05T15:35:53.434Z,40.16
2023-05-05T15:38:43.614Z,39.42
2023-05-05T15:41:30.393Z,39.68
2023-05-05T15:44:16.989Z,39.33
2023-05-05T15:47:03.787Z,39.32
2023-05-05T15:49:50.467Z,39.42
2023-05-05T15:52:39.096Z,39.81
2023-05-05T15:55:25.744Z,39.70
2023-05-05T15:58:12.445Z,40.21
2023-05-05T16:00:59.229Z,40.60
2023-05-05T16:03:46.069Z,41.07
2023-05-05T16:06:32.872Z,41.27
2023-05-05T16:09:20.808Z,41.74
2023-05-05T16:12:07.726Z,41.81
2023-05-05T16:14:54.504Z,42.79
2023-05-05T16:17:41.433Z,42.30
2023-05-05T16:20:29.749Z,42.35
2023-05-05T16:23:16.425Z,42.77
2023-05-05T16:26:04.682Z,42.67
2023-05-05T16:28:51.394Z,42.41
2023-05-05T16:31:38.102Z,42.78
2023-05-05T16:34:24.854Z,42.79
2023-05-05T16:37:12.797Z,42.68
2023-05-05T16:40:01.385Z,43.15
2023-05-05T16:42:49.559Z,43.70
2023-05-05T16:45:36.372Z,43.80
2023-05-05T16:48:23.193Z,44.88
2023-05-05T16:51:10.063Z,44.69
2023-05-05T16:53:57.153Z,44.26
2023-05-05T16:56:43.686Z,44.61
2023-05-05T16:59:31.894Z,44.65
2023-05-05T17:02:18.512Z,44.65
2023-05-05T17:05:06.000Z,44.67
2023-05-05T17:07:52.907Z,45.77
2023-05-05T17:10:39.615Z,45.65
2023-05-05T17:13:26.485Z,45.96
2023-05-05T17:16:14.734Z,45.68
2023-05-05T17:19:01.447Z,46.15
2023-05-05T17:21:48.120Z,46.97
2023-05-05T17:24:34.971Z,46.78
2023-05-05T17:27:21.827Z,46.70
2023-05-05T17:30:09.742Z,47.04
2023-05-05T17:32:57.687Z,47.21
2023-05-05T17:35:44.603Z,48.27
2023-05-05T17:38:31.344Z,47.78
2023-05-05T17:41:18.071Z,48.08
2023-05-05T17:44:05.134Z,48.99
2023-05-05T17:46:52.223Z,48.27
2023-05-05T17:49:40.389Z,48.24
2023-05-05T17:52:27.357Z,48.99
2023-05-05T17:55:14.354Z,48.55
2023-05-05T17:58:01.050Z,48.79
2023-05-05T18:00:47.881Z,49.01
2023-05-05T18:03:34.939Z,49.19
2023-05-05T18:06:22.890Z,49.16
2023-05-05T18:09:11.247Z,49.65
2023-05-05T18:11:58.147Z,49.75
2023-05-05T18:14:44.608Z,50.42
2023-05-05T18:17:31.340Z,50.62
2023-05-05T18:20:18.405Z,51.15
2023-05-05T18:23:06.396Z,50.95
2023-05-05T18:25:53.358Z,51.17
2023-05-05T18:28:40.081Z,51.61
2023-05-05T18:31:27.656Z,51.53
2023-05-05T18:34:14.324Z,51.42
2023-05-05T18:37:01.246Z,51.42
2023-05-05T18:39:49.715Z,51.78
2023-05-05T18:42:36.209Z,51.92
2023-05-05T18:45:23.349Z,51.70
2023-05-05T18:48:10.167Z,52.06
2023-05-05T18:51:02.337Z,52.19
2023-05-05T18:53:48.907Z,52.72
2023-05-05T18:56:36.979Z,53.03
2023-05-05T18:59:23.674Z,53.21
2023-05-05T19:02:10.473Z,52.84
2023-05-05T19:04:57.344Z,51.92
2023-05-05T19:07:44.782Z,52.89
2023-05-05T19:10:31.566Z,52.63
2023-05-05T19:13:19.827Z,52.79
2023-05-05T19:16:06.554Z,53.50
2023-05-05T19:18:54.639Z,53.46
2023-05-05T19:21:41.391Z,52.75
2023-05-05T19:24:28.197Z,53.65
2023-05-05T19:27:16.849Z,53.88
2023-05-05T19:30:06.557Z,53.74
2023-05-05T19:32:53.074Z,54.63
2023-05-05T19:35:39.762Z,54.33
2023-05-05T19:38:26.601Z,54.91
2023-05-05T19:41:13.471Z,54.84
2023-05-05T19:44:00.287Z,54.88
2023-05-05T19:46:48.654Z,55.41
2023-05-05T19:49:35.260Z,55.30
2023-05-05T19:52:22.739Z,56.21
2023-05-05T19:55:11.397Z,57.79
2023-05-05T19:57:58.302Z,59.47
2023-05-05T20:00:45.180Z,60.17
2023-05-05T20:03:33.499Z,62.00
2023-05-05T20:06:20.149Z,60.92
2023-05-05T20:09:07.510Z,62.35
2023-05-05T20:11:53.977Z,63.13
2023-05-05T20:14:40.899Z,61.12
2023-05-05T20:17:27.850Z,60.92
2023-05-05T20:20:18.763Z,60.63
2023-05-05T20:23:05.602Z,60.16
2023-05-05T20:25:52.796Z,60.02
2023-05-05T20:28:40.395Z,60.12
2023-05-05T20:31:28.754Z,59.77
2023-05-05T20:34:15.581Z,59.78
2023-05-05T20:37:03.643Z,59.50
2023-05-05T20:39:51.085Z,59.71
2023-05-05T20:42:38.182Z,59.73
2023-05-05T20:45:26.530Z,60.21
2023-05-05T20:48:13.339Z,59.80
2023-05-05T20:51:00.155Z,59.87
2023-05-05T20:53:48.198Z,59.49
2023-05-05T20:56:34.966Z,59.82
2023-05-05T20:59:24.293Z,59.90
2023-05-05T21:02:11.138Z,60.24
2023-05-05T21:05:02.547Z,60.74
2023-05-05T21:07:49.127Z,60.21
2023-05-05T21:10:37.836Z,60.38
2023-05-05T21:13:24.709Z,59.81
2023-05-05T21:16:12.822Z,60.35
2023-05-05T21:19:07.800Z,60.32
2023-05-05T21:21:59.007Z,61.00
2023-05-05T21:24:46.178Z,60.48
2023-05-05T21:27:34.078Z,61.07
2023-05-05T21:30:20.895Z,59.99
2023-05-05T21:33:07.598Z,60.27
2023-05-05T21:35:54.373Z,60.43
2023-05-05T21:38:41.177Z,60.30
2023-05-05T21:41:28.137Z,60.25
2023-05-05T21:44:16.668Z,60.23
2023-05-05T21:47:03.163Z,60.44
2023-05-05T21:49:49.882Z,59.99
2023-05-05T21:52:36.546Z,59.81
2023-05-05T21:55:23.417Z,60.25
2023-05-05T21:58:10.833Z,60.54
2023-05-05T22:00:58.605Z,60.43
2023-05-05T22:03:47.488Z,60.47
2023-05-05T22:06:34.320Z,60.80
2023-05-05T22:09:21.007Z,60.86
2023-05-05T22:12:08.544Z,60.25
2023-05-05T22:14:56.132Z,60.49
2023-05-05T22:17:44.517Z,60.57
2023-05-05T22:20:31.301Z,60.91
2023-05-05T22:23:17.793Z,60.86
2023-05-05T22:26:06.261Z,61.20
2023-05-05T22:28:52.753Z,60.10
2023-05-05T22:31:39.517Z,60.21
2023-05-05T22:34:27.602Z,60.31
2023-05-05T22:37:14.847Z,59.76
2023-05-05T22:40:01.505Z,60.08
2023-05-05T22:42:48.458Z,60.15
2023-05-05T22:45:35.850Z,61.26
2023-05-05T22:48:22.981Z,61.98
2023-05-05T22:51:11.371Z,62.13
2023-05-05T22:53:58.412Z,62.85
2023-05-05T22:56:45.229Z,62.13
2023-05-05T22:59:31.918Z,62.04
2023-05-05T23:02:18.940Z,61.30
2023-05-05T23:05:08.057Z,62.05
2023-05-05T23:08:00.030Z,63.44
2023-05-05T23:10:46.655Z,63.03
2023-05-05T23:13:33.542Z,63.35
2023-05-05T23:16:20.312Z,63.08
2023-05-05T23:19:07.018Z,63.10
2023-05-05T23:21:58.178Z,64.50
2023-05-05T23:24:46.266Z,65.41
2023-05-05T23:27:33.112Z,67.15
2023-05-05T23:30:20.186Z,67.19
2023-05-05T23:33:06.672Z,68.03
2023-05-05T23:35:53.504Z,67.98
2023-05-05T23:38:40.350Z,67.75
2023-05-05T23:41:28.645Z,67.74
2023-05-05T23:44:15.583Z,67.65
2023-05-05T23:47:02.416Z,68.18
2023-05-05T23:49:49.187Z,69.08
2023-05-05T23:52:36.010Z,68.67
2023-05-05T23:55:23.027Z,68.85
2023-05-05T23:58:11.263Z,67.79
